Ironton, Louisiana
Current Conditions -  °F | °C
As of 4:07 PM on Tuesday 21 Oct 2014 (Local Time) from K1B7 Reporting Station
Clear Clear  
Wind Chill: 75°   Ceiling: Unl
Heat Index: 75°   Visibility: 10mi
Dew Point: 61°   Wind: 14mph
Humidity: 61%   Direction: 60°ENE
Pressure: 29.97"   Gusts: NA
Location:  29.4927°N, 89.8165°W
Report Text: K1B7 212107Z 06012KT 10SM SKC 24/16 A2997 RMK LAST
Loading
Personal Weather Stations






























Interactive Weather Map
Tropical Storm Tracking
New forecast layout! Learn more

10-Day Weather Forecast

Advertisements
Track Severe Weather on mobile